Time;durP1;ratioP1;P1;durP2;ratioP2;P2;SDS_P1;SDS_P2;PMS_P1;PMS_P2;Temp;Humidity;BMP_temperature;BMP_pressure;BME280_temperature;BME280_humidity;BME280_pressure;Samples;Min_cycle;Max_cycle;Signal;HPM_P1;HPM_P2
2021/10/06 00:01:26;;;;;;;12.33;11.43;;;11.20;99.90;;;;;;5055879;28;20460;-69
2021/10/06 00:03:53;;;;;;;13.47;12.57;;;11.20;99.90;;;;;;5060649;28;20455;-69
2021/10/06 00:06:22;;;;;;;12.80;12.20;;;11.10;99.90;;;;;;5056654;28;20456;-69
2021/10/06 00:08:48;;;;;;;12.40;11.70;;;11.10;99.90;;;;;;5062557;28;20463;-68
2021/10/06 00:11:15;;;;;;;13.00;11.83;;;11.10;99.90;;;;;;5063023;28;20491;-70
2021/10/06 00:13:42;;;;;;;13.00;12.07;;;11.00;99.90;;;;;;5059025;28;20947;-70
2021/10/06 00:16:12;;;;;;;13.23;12.20;;;11.00;99.90;;;;;;5063370;28;20825;-69
2021/10/06 00:18:42;;;;;;;12.97;11.60;;;11.00;99.90;;;;;;5056163;28;20486;-70
2021/10/06 00:21:10;;;;;;;11.87;11.17;;;10.90;99.90;;;;;;5056845;28;20471;-71
2021/10/06 00:23:37;;;;;;;13.17;12.07;;;10.80;99.90;;;;;;5063577;28;20456;-69
2021/10/06 00:26:06;;;;;;;12.43;11.53;;;10.80;99.90;;;;;;5061026;28;20470;-71
2021/10/06 00:28:34;;;;;;;13.83;12.50;;;10.80;99.90;;;;;;5061119;28;20474;-69
2021/10/06 00:31:01;;;;;;;13.53;12.33;;;10.80;99.90;;;;;;5057019;28;20459;-69
2021/10/06 00:33:28;;;;;;;12.73;11.70;;;10.70;99.90;;;;;;5061840;28;20981;-69
2021/10/06 00:35:58;;;;;;;13.90;12.80;;;10.80;99.90;;;;;;5057919;28;20475;-69
2021/10/06 00:38:27;;;;;;;13.90;12.53;;;10.70;99.90;;;;;;5055761;28;20464;-71
2021/10/06 00:40:54;;;;;;;14.30;12.97;;;10.70;99.90;;;;;;5056411;28;20451;-70
2021/10/06 00:43:21;;;;;;;11.90;11.27;;;10.70;99.90;;;;;;5061745;28;20471;-69
2021/10/06 00:45:50;;;;;;;13.90;12.73;;;10.70;99.90;;;;;;5056274;28;20471;-68
2021/10/06 00:48:18;;;;;;;13.57;12.27;;;10.70;99.90;;;;;;5058273;28;20491;-69
2021/10/06 00:50:45;;;;;;;13.23;12.30;;;10.70;99.90;;;;;;5063394;28;20451;-69
2021/10/06 00:53:14;;;;;;;13.50;11.73;;;10.70;99.90;;;;;;5058713;28;20451;-69
2021/10/06 00:55:42;;;;;;;13.93;12.93;;;10.70;99.90;;;;;;5053730;28;20473;-71
2021/10/06 00:58:10;;;;;;;13.33;12.10;;;10.70;99.90;;;;;;5063681;28;20541;-72
2021/10/06 01:00:37;;;;;;;13.33;12.23;;;10.70;99.90;;;;;;5058425;28;20459;-69
2021/10/06 01:03:04;;;;;;;12.60;11.70;;;10.70;99.90;;;;;;5061592;28;20460;-69
2021/10/06 01:05:31;;;;;;;16.23;11.90;;;10.70;99.90;;;;;;5058448;28;20809;-69
2021/10/06 01:08:00;;;;;;;13.33;12.43;;;10.70;99.90;;;;;;5064953;28;20470;-69
2021/10/06 01:10:30;;;;;;;12.87;11.80;;;10.80;99.90;;;;;;5065571;28;20463;-69
2021/10/06 01:13:00;;;;;;;12.37;11.23;;;10.80;99.90;;;;;;5055054;28;20466;-68
2021/10/06 01:15:28;;;;;;;12.87;11.57;;;10.90;99.90;;;;;;5054581;28;20458;-69
2021/10/06 01:17:55;;;;;;;11.80;11.10;;;10.90;99.90;;;;;;5055965;28;20483;-69
2021/10/06 01:20:22;;;;;;;12.67;11.67;;;11.00;99.90;;;;;;5058311;28;20466;-69
2021/10/06 01:22:52;;;;;;;12.33;11.40;;;11.00;99.90;;;;;;5061126;28;20458;-69
2021/10/06 01:25:20;;;;;;;13.43;12.23;;;11.10;99.90;;;;;;5058595;28;20496;-72
2021/10/06 01:27:47;;;;;;;12.23;11.33;;;11.20;99.90;;;;;;5062591;28;20463;-69
2021/10/06 01:30:16;;;;;;;13.83;12.30;;;11.20;99.90;;;;;;5059694;28;20481;-70
2021/10/06 01:32:45;;;;;;;15.87;12.07;;;11.20;99.90;;;;;;5052039;28;20459;-69
2021/10/06 01:35:14;;;;;;;14.23;13.23;;;11.30;99.90;;;;;;5058877;28;20810;-72
2021/10/06 01:37:42;;;;;;;12.80;11.90;;;11.20;99.90;;;;;;5063322;28;20980;-69
2021/10/06 01:40:14;;;;;;;13.87;11.80;;;11.20;99.90;;;;;;5062282;28;20463;-69
2021/10/06 01:42:43;;;;;;;14.30;12.83;;;11.10;99.90;;;;;;5058985;28;20455;-70
2021/10/06 01:45:22;;;;;;;13.83;12.40;;;11.10;99.90;;;;;;5062696;28;20459;-69
2021/10/06 01:47:50;;;;;;;18.67;12.37;;;11.00;99.90;;;;;;5063310;28;20499;-69
2021/10/06 01:50:22;;;;;;;13.47;12.47;;;11.00;99.90;;;;;;5060123;28;20459;-69
2021/10/06 01:52:51;;;;;;;13.60;12.50;;;11.00;99.90;;;;;;5061997;28;20549;-71
2021/10/06 01:55:25;;;;;;;12.33;11.40;;;11.00;99.90;;;;;;5057730;28;20463;-69
2021/10/06 01:57:51;;;;;;;16.00;12.70;;;11.00;99.90;;;;;;5057239;28;20486;-70
2021/10/06 02:00:19;;;;;;;17.20;12.07;;;11.00;99.90;;;;;;5060695;28;20463;-69
2021/10/06 02:02:45;;;;;;;13.33;12.23;;;11.00;99.90;;;;;;5061894;28;20861;-69
2021/10/06 02:05:12;;;;;;;14.40;12.43;;;11.00;99.90;;;;;;5061825;28;20478;-69
2021/10/06 02:07:39;;;;;;;14.63;13.37;;;10.90;99.90;;;;;;5064958;28;20463;-68
2021/10/06 02:10:08;;;;;;;19.10;12.80;;;10.90;99.90;;;;;;5060179;28;20455;-69
2021/10/06 02:12:38;;;;;;;14.10;12.70;;;10.90;99.90;;;;;;5064654;28;20512;-69
2021/10/06 02:15:07;;;;;;;14.90;12.43;;;10.90;99.90;;;;;;5058952;28;20485;-69
2021/10/06 02:17:34;;;;;;;14.17;12.83;;;11.00;99.90;;;;;;5064918;28;20489;-69
2021/10/06 02:20:01;;;;;;;17.43;14.00;;;11.00;99.90;;;;;;5060502;28;20990;-69
2021/10/06 02:22:29;;;;;;;13.90;12.57;;;11.00;99.90;;;;;;5064208;28;20675;-70
2021/10/06 02:24:56;;;;;;;12.93;11.87;;;10.90;99.90;;;;;;5056928;28;20473;-69
2021/10/06 02:27:25;;;;;;;17.77;12.20;;;10.90;99.90;;;;;;5065574;28;20486;-69
2021/10/06 02:29:53;;;;;;;14.33;12.93;;;10.90;99.90;;;;;;5064842;28;20834;-70
2021/10/06 02:32:21;;;;;;;14.60;13.50;;;10.80;99.90;;;;;;5063897;28;20482;-69
2021/10/06 02:34:48;;;;;;;12.93;11.93;;;10.80;99.90;;;;;;5059330;28;20470;-70
2021/10/06 02:37:16;;;;;;;13.80;12.40;;;10.80;99.90;;;;;;5063624;28;20483;-69
2021/10/06 02:39:43;;;;;;;14.93;13.07;;;10.80;99.90;;;;;;5059288;28;20459;-69
2021/10/06 02:42:11;;;;;;;17.17;13.67;;;10.70;99.90;;;;;;5064820;28;20474;-68
2021/10/06 02:44:39;;;;;;;14.50;13.40;;;10.70;99.90;;;;;;5063612;28;20462;-69
2021/10/06 02:47:08;;;;;;;16.33;12.63;;;10.70;99.90;;;;;;5060755;28;20455;-68
2021/10/06 02:49:36;;;;;;;13.97;13.07;;;10.70;99.90;;;;;;5061583;28;20561;-70
2021/10/06 02:52:03;;;;;;;14.83;12.90;;;10.70;99.90;;;;;;5060429;28;20471;-69
2021/10/06 02:54:32;;;;;;;14.00;12.70;;;10.70;99.90;;;;;;5064736;28;20473;-69
2021/10/06 02:57:01;;;;;;;13.50;12.70;;;10.60;99.90;;;;;;5063125;28;20483;-72
2021/10/06 02:59:28;;;;;;;13.70;12.33;;;10.60;99.90;;;;;;5063075;28;20466;-71
2021/10/06 03:01:56;;;;;;;14.90;13.73;;;10.60;99.90;;;;;;5062676;28;20455;-69
2021/10/06 03:04:25;;;;;;;13.70;12.37;;;10.60;99.90;;;;;;5063661;28;20470;-69
2021/10/06 03:06:52;;;;;;;16.13;14.70;;;10.70;99.90;;;;;;5064561;28;20477;-70
2021/10/06 03:09:20;;;;;;;13.30;12.23;;;10.80;99.90;;;;;;5059440;28;20463;-70
2021/10/06 03:11:48;;;;;;;14.13;12.70;;;10.80;99.90;;;;;;5064958;28;20570;-69
2021/10/06 03:14:15;;;;;;;13.00;11.70;;;10.90;99.90;;;;;;5061013;28;20463;-71
2021/10/06 03:16:42;;;;;;;17.43;13.03;;;11.00;99.90;;;;;;5063092;28;20476;-69
2021/10/06 03:19:10;;;;;;;13.50;12.50;;;11.00;99.90;;;;;;5062693;28;20478;-70
2021/10/06 03:21:39;;;;;;;14.27;12.63;;;11.10;99.90;;;;;;5062269;28;20874;-68
2021/10/06 03:24:06;;;;;;;14.33;13.30;;;11.10;99.90;;;;;;5058533;28;20460;-69
2021/10/06 03:26:33;;;;;;;13.83;12.90;;;11.10;99.90;;;;;;5063019;28;20459;-70
2021/10/06 03:29:01;;;;;;;13.60;12.90;;;11.10;99.90;;;;;;5064006;28;20452;-70
2021/10/06 03:31:28;;;;;;;13.33;12.53;;;11.10;99.90;;;;;;5053802;28;20455;-69
2021/10/06 03:33:59;;;;;;;15.63;14.10;;;11.10;99.90;;;;;;5056781;28;20474;-69
2021/10/06 03:36:26;;;;;;;15.20;13.63;;;11.10;99.90;;;;;;5062941;28;20459;-71
2021/10/06 03:38:55;;;;;;;14.67;13.30;;;11.10;99.90;;;;;;5060000;28;20490;-69
2021/10/06 03:41:23;;;;;;;14.63;13.43;;;11.10;99.90;;;;;;5065054;28;20466;-69
2021/10/06 03:43:50;;;;;;;15.10;13.77;;;11.10;99.90;;;;;;5066436;28;20542;-69
2021/10/06 03:46:16;;;;;;;13.50;12.50;;;11.10;99.90;;;;;;5056539;28;20565;-69
2021/10/06 03:48:45;;;;;;;24.70;14.43;;;11.10;99.90;;;;;;5058665;28;20466;-71
2021/10/06 03:51:12;;;;;;;14.67;13.50;;;11.10;99.90;;;;;;5060527;28;20450;-68
2021/10/06 03:53:40;;;;;;;14.70;13.27;;;11.20;99.90;;;;;;5063933;28;20459;-68
2021/10/06 03:56:09;;;;;;;14.47;13.20;;;11.20;99.90;;;;;;5057354;28;20460;-68
2021/10/06 03:58:36;;;;;;;14.33;13.37;;;11.30;99.90;;;;;;5058694;28;20494;-71
2021/10/06 04:01:05;;;;;;;15.03;13.67;;;11.20;99.90;;;;;;5056919;28;20499;-72
2021/10/06 04:03:31;;;;;;;15.37;14.10;;;11.30;99.90;;;;;;5058570;28;20809;-69
2021/10/06 04:05:58;;;;;;;16.00;14.23;;;11.30;99.90;;;;;;5058083;28;20960;-69
2021/10/06 04:08:25;;;;;;;15.13;13.70;;;11.30;99.90;;;;;;5062586;28;20464;-71
2021/10/06 04:10:52;;;;;;;15.33;13.83;;;11.40;99.90;;;;;;5055816;28;20486;-69
2021/10/06 04:13:20;;;;;;;16.37;14.13;;;11.40;99.90;;;;;;5062665;28;20461;-69
2021/10/06 04:15:47;;;;;;;14.37;13.20;;;11.30;99.90;;;;;;5061410;28;20461;-70
2021/10/06 04:18:13;;;;;;;15.50;14.20;;;11.20;99.90;;;;;;5060461;28;20490;-71
2021/10/06 04:20:40;;;;;;;16.67;14.03;;;11.20;99.90;;;;;;5055164;28;20479;-69
2021/10/06 04:23:07;;;;;;;14.50;13.40;;;11.20;99.90;;;;;;5060216;28;20477;-72
2021/10/06 04:25:34;;;;;;;14.00;13.00;;;11.20;99.90;;;;;;5063916;28;20447;-69
2021/10/06 04:28:01;;;;;;;14.70;13.50;;;11.20;99.90;;;;;;5056129;28;20460;-69
2021/10/06 04:30:30;;;;;;;14.47;13.67;;;11.30;99.90;;;;;;5058680;28;20498;-68
2021/10/06 04:32:57;;;;;;;14.80;13.90;;;11.30;99.90;;;;;;5047687;28;20475;-71
2021/10/06 04:35:23;;;;;;;14.63;13.70;;;11.30;99.90;;;;;;5050084;28;20459;-68
2021/10/06 04:37:50;;;;;;;16.50;14.60;;;11.40;99.90;;;;;;5059242;28;20482;-71
2021/10/06 04:40:17;;;;;;;14.47;13.77;;;11.40;99.90;;;;;;5057992;28;20803;-71
2021/10/06 04:42:45;;;;;;;15.43;14.40;;;11.50;99.90;;;;;;5056930;28;20463;-72
2021/10/06 04:45:13;;;;;;;15.03;13.93;;;11.40;99.90;;;;;;5057308;28;20565;-70
2021/10/06 04:47:41;;;;;;;15.17;14.00;;;11.50;99.90;;;;;;5046506;28;20459;-70
2021/10/06 04:50:10;;;;;;;17.87;14.20;;;11.50;99.90;;;;;;5056384;28;20469;-71
2021/10/06 04:52:37;;;;;;;15.70;14.10;;;11.60;99.90;;;;;;5049872;28;20468;-71
2021/10/06 04:55:05;;;;;;;15.17;14.27;;;11.60;99.90;;;;;;5057815;28;20855;-72
2021/10/06 04:57:32;;;;;;;15.30;14.10;;;11.60;99.90;;;;;;5056929;28;20475;-70
2021/10/06 04:59:59;;;;;;;14.60;13.80;;;11.60;99.90;;;;;;5051451;28;20459;-71
2021/10/06 05:02:26;;;;;;;15.20;13.80;;;11.50;99.90;;;;;;5045816;28;20829;-70
2021/10/06 05:04:54;;;;;;;15.13;14.10;;;11.60;99.90;;;;;;5052776;28;20463;-71
2021/10/06 05:07:21;;;;;;;14.87;13.90;;;11.60;99.90;;;;;;5051656;28;20459;-72
2021/10/06 05:09:48;;;;;;;15.37;14.10;;;11.70;99.90;;;;;;5053023;28;20459;-71
2021/10/06 05:12:15;;;;;;;14.97;13.80;;;11.70;99.90;;;;;;5055628;28;20494;-70
2021/10/06 05:14:42;;;;;;;15.70;14.70;;;11.70;99.90;;;;;;5052417;28;20472;-70
2021/10/06 05:17:08;;;;;;;16.57;13.97;;;11.70;99.90;;;;;;5052703;28;20989;-71
2021/10/06 05:19:35;;;;;;;17.53;14.40;;;11.70;99.90;;;;;;5055943;28;20483;-71
2021/10/06 05:22:04;;;;;;;15.07;14.10;;;11.70;99.90;;;;;;5050965;28;20470;-72
2021/10/06 05:24:30;;;;;;;17.57;15.27;;;11.70;99.90;;;;;;5049677;28;21029;-71
2021/10/06 05:26:57;;;;;;;15.83;14.70;;;11.70;99.90;;;;;;5054209;28;20547;-69
2021/10/06 05:29:24;;;;;;;15.43;14.53;;;11.70;99.90;;;;;;5055128;28;20456;-71
2021/10/06 05:31:51;;;;;;;15.40;14.40;;;11.70;99.90;;;;;;5057457;28;20465;-73
2021/10/06 05:34:18;;;;;;;15.97;14.80;;;11.80;99.90;;;;;;5043506;28;20472;-71
2021/10/06 05:36:45;;;;;;;16.97;15.40;;;11.70;99.90;;;;;;5052830;28;20462;-71
2021/10/06 05:39:13;;;;;;;16.30;15.30;;;11.80;99.90;;;;;;5051080;28;20502;-72
2021/10/06 05:41:40;;;;;;;16.63;15.40;;;11.80;99.90;;;;;;5048378;28;20548;-71
2021/10/06 05:44:07;;;;;;;16.40;15.00;;;11.80;99.90;;;;;;5057899;28;20483;-72
2021/10/06 05:46:34;;;;;;;17.27;15.77;;;11.80;99.90;;;;;;5060446;28;20458;-70
2021/10/06 05:49:01;;;;;;;18.90;17.23;;;11.80;99.90;;;;;;5054495;28;20459;-70
2021/10/06 05:51:28;;;;;;;19.63;17.97;;;11.70;99.90;;;;;;5058112;28;20472;-70
2021/10/06 05:53:55;;;;;;;19.07;17.77;;;11.60;99.90;;;;;;5058663;28;20459;-70
2021/10/06 05:56:23;;;;;;;19.07;17.47;;;11.50;99.90;;;;;;5057649;28;21401;-73
2021/10/06 05:58:50;;;;;;;20.10;18.37;;;11.40;99.90;;;;;;5050292;28;20487;-71
2021/10/06 06:01:17;;;;;;;22.07;19.73;;;11.30;99.90;;;;;;5049614;28;20460;-69
2021/10/06 06:03:45;;;;;;;22.00;20.07;;;11.20;99.90;;;;;;5055360;28;20463;-71
2021/10/06 06:06:13;;;;;;;23.43;21.30;;;11.20;99.90;;;;;;5049837;28;20456;-72
2021/10/06 06:08:40;;;;;;;24.60;22.47;;;11.20;99.90;;;;;;5052575;28;20463;-73
2021/10/06 06:11:07;;;;;;;25.57;23.13;;;11.10;99.90;;;;;;5058927;28;20873;-70
2021/10/06 06:13:35;;;;;;;24.67;22.70;;;10.90;99.90;;;;;;5056332;28;20454;-71
2021/10/06 06:16:03;;;;;;;23.67;21.63;;;10.90;99.90;;;;;;5055036;28;20455;-70
2021/10/06 06:18:30;;;;;;;23.77;22.00;;;10.80;99.90;;;;;;5057031;28;20646;-73
2021/10/06 06:20:57;;;;;;;24.03;22.13;;;10.80;99.90;;;;;;5055849;28;20838;-70
2021/10/06 06:23:26;;;;;;;23.63;21.40;;;10.70;99.90;;;;;;5057578;28;21255;-71
2021/10/06 06:25:53;;;;;;;24.33;21.77;;;10.70;99.90;;;;;;5055073;28;20458;-70
2021/10/06 06:28:20;;;;;;;23.13;21.20;;;10.60;99.90;;;;;;5053409;28;20467;-70
2021/10/06 06:30:49;;;;;;;22.83;21.23;;;10.60;99.90;;;;;;5053676;28;20495;-71
2021/10/06 06:33:16;;;;;;;23.10;21.20;;;10.60;99.90;;;;;;5054485;28;20466;-71
2021/10/06 06:35:44;;;;;;;23.40;21.40;;;10.50;99.90;;;;;;5058475;28;20470;-71
2021/10/06 06:38:12;;;;;;;22.00;20.00;;;10.50;99.90;;;;;;5061100;28;20841;-70
2021/10/06 06:40:42;;;;;;;22.03;20.40;;;10.50;99.90;;;;;;5056518;28;20443;-71
2021/10/06 06:43:09;;;;;;;21.23;19.37;;;10.50;99.90;;;;;;5054186;28;20481;-71
2021/10/06 06:45:36;;;;;;;22.43;20.30;;;10.50;99.90;;;;;;5053928;28;20463;-71
2021/10/06 06:48:05;;;;;;;20.17;18.87;;;10.50;99.90;;;;;;5053895;28;20464;-72
2021/10/06 06:50:32;;;;;;;20.53;18.40;;;10.50;99.90;;;;;;5058700;28;20544;-73
2021/10/06 06:52:59;;;;;;;20.90;19.40;;;10.40;99.90;;;;;;5055264;28;20525;-70
2021/10/06 06:55:26;;;;;;;19.70;18.07;;;10.40;99.90;;;;;;5054589;28;20459;-73
2021/10/06 06:57:53;;;;;;;20.77;17.90;;;10.40;99.90;;;;;;5049919;28;20479;-72
2021/10/06 07:00:20;;;;;;;18.80;17.50;;;10.50;99.90;;;;;;5057897;28;20467;-71
2021/10/06 07:02:47;;;;;;;20.80;18.80;;;10.50;99.90;;;;;;5051909;28;20458;-71
2021/10/06 07:05:16;;;;;;;19.00;17.17;;;10.50;99.90;;;;;;5060953;28;20465;-71
2021/10/06 07:07:43;;;;;;;18.60;16.90;;;10.50;99.90;;;;;;5055466;28;20462;-71
2021/10/06 07:10:11;;;;;;;19.00;16.87;;;10.50;99.90;;;;;;5051455;28;20470;-71
2021/10/06 07:12:38;;;;;;;18.67;17.07;;;10.50;99.90;;;;;;5051542;28;20495;-73
2021/10/06 07:15:05;;;;;;;18.93;17.33;;;10.60;99.90;;;;;;5050453;28;20463;-70
2021/10/06 07:17:33;;;;;;;17.77;16.67;;;10.70;99.90;;;;;;5050746;28;20795;-71
2021/10/06 07:20:02;;;;;;;24.13;17.90;;;10.70;99.90;;;;;;5057589;28;21033;-72
2021/10/06 07:22:30;;;;;;;18.90;17.50;;;10.80;99.90;;;;;;5056606;28;20820;-70
2021/10/06 07:24:58;;;;;;;20.00;18.30;;;10.90;99.90;;;;;;5052938;28;20463;-71
2021/10/06 07:27:25;;;;;;;20.10;18.40;;;11.00;99.90;;;;;;5053176;28;20463;-70
2021/10/06 07:29:52;;;;;;;19.57;18.17;;;11.00;99.90;;;;;;5050170;28;20459;-72
2021/10/06 07:32:19;;;;;;;19.43;17.80;;;11.00;99.90;;;;;;5049844;28;20460;-70
2021/10/06 07:34:46;;;;;;;20.73;19.30;;;11.10;99.90;;;;;;5054957;28;20613;-72
2021/10/06 07:37:13;;;;;;;24.73;18.93;;;11.10;99.90;;;;;;5051184;28;20532;-71
2021/10/06 07:39:43;;;;;;;22.03;19.03;;;11.10;99.90;;;;;;5050320;28;20703;-71
2021/10/06 07:42:09;;;;;;;20.50;18.90;;;11.00;99.90;;;;;;5052831;28;20487;-71
2021/10/06 07:44:36;;;;;;;21.13;19.57;;;11.10;99.90;;;;;;5053943;28;20791;-73
2021/10/06 07:47:03;;;;;;;21.00;19.00;;;11.00;99.90;;;;;;5046608;28;20467;-70
2021/10/06 07:49:30;;;;;;;20.73;19.00;;;11.00;99.90;;;;;;5046259;28;20460;-73
2021/10/06 07:51:57;;;;;;;20.00;18.50;;;11.10;99.90;;;;;;5052859;28;20455;-71
2021/10/06 07:54:25;;;;;;;20.80;19.33;;;11.10;99.90;;;;;;5054453;28;20452;-72
2021/10/06 07:56:53;;;;;;;20.77;18.97;;;11.10;99.90;;;;;;5055723;28;20904;-70
2021/10/06 07:59:20;;;;;;;21.03;19.10;;;11.10;99.90;;;;;;5052800;28;20483;-74
2021/10/06 08:01:47;;;;;;;19.90;18.27;;;11.10;99.90;;;;;;5051728;28;20553;-73
2021/10/06 08:04:13;;;;;;;19.47;18.27;;;11.30;99.90;;;;;;5051594;28;20464;-74
2021/10/06 08:06:41;;;;;;;18.63;16.97;;;11.30;99.90;;;;;;5055726;28;20459;-70
2021/10/06 08:09:07;;;;;;;19.80;17.80;;;11.60;99.90;;;;;;5055390;28;20814;-70
2021/10/06 08:11:35;;;;;;;23.87;17.33;;;11.70;99.90;;;;;;5055071;28;20834;-73
2021/10/06 08:14:03;;;;;;;17.37;15.67;;;11.80;99.90;;;;;;5055811;28;20467;-72
2021/10/06 08:16:30;;;;;;;16.63;15.20;;;11.80;99.90;;;;;;5057262;28;20464;-71
2021/10/06 08:18:57;;;;;;;18.20;16.57;;;11.80;99.90;;;;;;5050545;28;22171;-74
2021/10/06 08:21:25;;;;;;;17.20;15.90;;;11.80;99.90;;;;;;5050739;28;20520;-71
2021/10/06 08:23:52;;;;;;;18.33;16.70;;;11.70;99.90;;;;;;5045971;28;20452;-73
2021/10/06 08:26:19;;;;;;;18.33;17.03;;;11.60;99.90;;;;;;5052555;28;20467;-70
2021/10/06 08:28:46;;;;;;;17.23;15.93;;;11.50;99.90;;;;;;5052175;28;20462;-71
2021/10/06 08:31:16;;;;;;;17.10;15.80;;;11.50;99.90;;;;;;5047301;28;20485;-70
2021/10/06 08:33:44;;;;;;;17.30;16.00;;;11.40;99.90;;;;;;5050537;28;20466;-71
2021/10/06 08:36:10;;;;;;;16.87;15.40;;;11.50;99.90;;;;;;5052476;28;20463;-71
2021/10/06 08:38:38;;;;;;;15.33;14.30;;;11.50;99.90;;;;;;5049215;28;20480;-71
2021/10/06 08:41:06;;;;;;;14.83;13.93;;;11.60;99.90;;;;;;5053687;28;20537;-74
2021/10/06 08:43:34;;;;;;;14.60;13.50;;;11.70;99.90;;;;;;5050319;28;20808;-73
2021/10/06 08:46:01;;;;;;;15.43;14.23;;;11.70;99.90;;;;;;5054233;28;20451;-73
2021/10/06 08:48:31;;;;;;;14.50;13.30;;;11.60;99.90;;;;;;5051956;28;20467;-71
2021/10/06 08:50:58;;;;;;;14.93;13.80;;;11.50;99.90;;;;;;5055861;28;20471;-70
2021/10/06 08:53:25;;;;;;;14.00;12.90;;;11.40;99.90;;;;;;5050440;28;20555;-70
2021/10/06 08:55:52;;;;;;;14.27;13.17;;;11.50;99.90;;;;;;5052030;28;20455;-73
2021/10/06 08:58:19;;;;;;;14.03;13.23;;;11.60;99.90;;;;;;5057087;28;20479;-72
2021/10/06 09:00:54;;;;;;;14.37;12.93;;;11.70;99.90;;;;;;5060892;28;20460;-71
2021/10/06 09:03:30;;;;;;;14.50;13.20;;;11.80;99.90;;;;;;5050430;28;20521;-70
2021/10/06 09:06:03;;;;;;;15.40;14.50;;;11.80;99.90;;;;;;5056294;28;20945;-70
2021/10/06 09:08:30;;;;;;;17.03;15.73;;;11.60;99.90;;;;;;5053141;28;20556;-70
2021/10/06 09:10:58;;;;;;;18.80;17.50;;;11.60;99.90;;;;;;5053551;28;20491;-72
2021/10/06 09:13:31;;;;;;;19.80;18.30;;;11.50;99.90;;;;;;5050600;28;20462;-70
2021/10/06 09:15:59;;;;;;;20.23;18.90;;;11.50;99.90;;;;;;5054283;28;20467;-71
2021/10/06 09:18:28;;;;;;;20.00;18.70;;;11.30;99.90;;;;;;5053238;28;21018;-71
2021/10/06 09:20:58;;;;;;;18.93;17.70;;;11.20;99.90;;;;;;5047804;28;20978;-73
2021/10/06 09:23:26;;;;;;;17.50;16.50;;;11.10;99.90;;;;;;5062402;28;20949;-71
2021/10/06 09:25:54;;;;;;;19.13;17.50;;;11.00;99.90;;;;;;5056026;28;20533;-71
2021/10/06 09:28:24;;;;;;;19.63;17.10;;;11.00;99.90;;;;;;5051890;28;20820;-73
2021/10/06 09:30:57;;;;;;;18.00;16.47;;;11.10;99.90;;;;;;5045122;28;20456;-71
2021/10/06 09:33:25;;;;;;;18.97;17.47;;;11.30;99.90;;;;;;5049902;28;20798;-73
2021/10/06 09:36:09;;;;;;;18.07;16.87;;;11.40;99.90;;;;;;5053912;28;20466;-73
2021/10/06 09:38:45;;;;;;;18.20;16.90;;;11.50;99.90;;;;;;5056322;28;20969;-71
2021/10/06 09:41:33;;;;;;;17.90;16.60;;;11.50;99.90;;;;;;5056715;28;20929;-72
2021/10/06 09:44:04;;;;;;;19.00;17.70;;;11.50;99.90;;;;;;5055795;28;20447;-73
2021/10/06 09:46:44;;;;;;;17.20;16.10;;;11.50;99.90;;;;;;5053301;28;20467;-71
2021/10/06 09:49:18;;;;;;;17.70;16.70;;;11.50;99.90;;;;;;5052621;28;20492;-71
2021/10/06 09:52:21;;;;;;;16.20;15.30;;;11.50;99.90;;;;;;5052943;28;20570;-70
2021/10/06 09:54:52;;;;;;;16.90;15.70;;;11.30;99.90;;;;;;5053330;28;20463;-73
2021/10/06 09:57:28;;;;;;;17.57;16.20;;;11.40;99.90;;;;;;5049280;28;20474;-72
2021/10/06 09:59:55;;;;;;;17.43;16.33;;;11.30;99.90;;;;;;5052795;28;20852;-71
2021/10/06 10:02:24;;;;;;;17.77;16.47;;;11.30;99.90;;;;;;5057572;28;20507;-70
2021/10/06 10:04:52;;;;;;;16.00;15.00;;;11.30;99.90;;;;;;5050165;28;20463;-71
2021/10/06 10:07:21;;;;;;;16.37;15.23;;;11.30;99.90;;;;;;5045495;28;20479;-72
2021/10/06 10:09:49;;;;;;;16.60;15.63;;;11.30;99.90;;;;;;5050501;28;20482;-74
2021/10/06 10:12:18;;;;;;;16.70;15.70;;;11.30;99.90;;;;;;5050346;28;20506;-73
2021/10/06 10:14:45;;;;;;;18.37;16.70;;;11.30;99.90;;;;;;5046611;28;20460;-71
2021/10/06 10:17:12;;;;;;;17.47;16.17;;;11.30;99.90;;;;;;5055602;28;20937;-71
2021/10/06 10:19:40;;;;;;;17.83;16.40;;;11.30;99.90;;;;;;5049555;28;20497;-71
2021/10/06 10:22:07;;;;;;;17.17;16.07;;;11.20;99.90;;;;;;5051833;28;20546;-72
2021/10/06 10:24:44;;;;;;;17.67;16.53;;;11.40;99.90;;;;;;5048775;28;20472;-72
2021/10/06 10:27:14;;;;;;;16.90;15.57;;;11.40;99.90;;;;;;5050656;28;20463;-71
2021/10/06 10:29:47;;;;;;;17.73;16.63;;;11.40;99.90;;;;;;5059383;28;20477;-72
2021/10/06 10:32:16;;;;;;;18.10;16.70;;;11.50;99.90;;;;;;5058738;28;20478;-71
2021/10/06 10:35:14;;;;;;;17.63;16.53;;;11.50;99.90;;;;;;5056443;28;20459;-71
2021/10/06 10:38:09;;;;;;;18.57;17.27;;;11.50;99.90;;;;;;5055874;28;20977;-72
2021/10/06 10:40:42;;;;;;;18.53;17.27;;;11.40;99.90;;;;;;5046179;28;20548;-72
2021/10/06 10:43:11;;;;;;;18.63;17.50;;;11.50;99.90;;;;;;5052623;28;20460;-72
2021/10/06 10:45:40;;;;;;;18.57;17.33;;;11.60;99.90;;;;;;5049806;28;20456;-74
2021/10/06 10:48:09;;;;;;;18.37;16.97;;;11.50;99.90;;;;;;5050004;28;20913;-72
2021/10/06 10:51:01;;;;;;;19.57;17.50;;;11.60;99.90;;;;;;5055754;28;21052;-72
2021/10/06 10:54:00;;;;;;;19.13;17.60;;;11.40;99.90;;;;;;5052230;28;20498;-72
2021/10/06 10:56:43;;;;;;;18.60;17.40;;;11.50;99.90;;;;;;5049838;28;20464;-72
2021/10/06 10:59:11;;;;;;;19.47;18.10;;;11.50;99.90;;;;;;5059274;28;20468;-72
2021/10/06 11:01:40;;;;;;;19.17;17.60;;;11.60;99.90;;;;;;5052052;28;20463;-72
2021/10/06 11:04:09;;;;;;;19.60;17.80;;;11.80;99.90;;;;;;5057271;28;20485;-73
2021/10/06 11:06:37;;;;;;;18.20;17.00;;;12.00;99.90;;;;;;5049170;28;20807;-72
2021/10/06 11:09:45;;;;;;;18.73;17.63;;;11.90;99.90;;;;;;5052266;28;20520;-71
2021/10/06 11:12:45;;;;;;;20.33;18.30;;;11.90;99.90;;;;;;5057454;28;20900;-72
2021/10/06 11:15:36;;;;;;;19.27;18.00;;;11.90;99.90;;;;;;5054110;28;20459;-73
2021/10/06 11:18:25;;;;;;;19.17;18.00;;;12.00;99.90;;;;;;5050983;28;22844;-72
2021/10/06 11:20:59;;;;;;;18.33;17.23;;;12.00;99.90;;;;;;5055695;28;20931;-72
2021/10/06 11:23:45;;;;;;;16.77;15.73;;;11.90;99.90;;;;;;5049548;28;20467;-72
2021/10/06 11:26:17;;;;;;;17.97;16.77;;;11.80;99.90;;;;;;5052799;28;20452;-70
2021/10/06 11:28:46;;;;;;;19.30;18.00;;;11.70;99.90;;;;;;5054335;28;20964;-70
2021/10/06 11:31:14;;;;;;;19.20;17.90;;;11.70;99.90;;;;;;5055388;28;20462;-72
2021/10/06 11:33:42;;;;;;;19.37;17.60;;;11.60;99.90;;;;;;5052896;28;20458;-72
2021/10/06 11:36:14;;;;;;;18.40;17.10;;;11.80;99.90;;;;;;5053325;28;20676;-71
2021/10/06 11:38:44;;;;;;;19.30;17.57;;;12.00;99.90;;;;;;5047604;28;20471;-70
2021/10/06 11:41:13;;;;;;;18.80;17.23;;;12.20;99.90;;;;;;5052908;28;20495;-71
2021/10/06 11:43:42;;;;;;;19.13;17.73;;;12.30;99.90;;;;;;5047534;28;20494;-70
2021/10/06 11:46:13;;;;;;;19.10;17.80;;;12.30;99.90;;;;;;5056060;28;20478;-71
2021/10/06 11:48:41;;;;;;;18.73;17.50;;;12.20;99.90;;;;;;5056016;28;20958;-70
2021/10/06 11:51:08;;;;;;;19.33;17.97;;;12.40;99.90;;;;;;5057274;28;20543;-71
2021/10/06 11:53:44;;;;;;;18.40;17.20;;;12.20;99.90;;;;;;5051923;28;20739;-70
2021/10/06 11:56:22;;;;;;;20.03;18.63;;;12.30;99.90;;;;;;5051549;28;20460;-72
2021/10/06 11:58:50;;;;;;;19.73;18.33;;;12.30;99.90;;;;;;5050361;28;20921;-70
2021/10/06 12:01:18;;;;;;;20.40;18.80;;;12.30;99.90;;;;;;5054298;28;20493;-70
2021/10/06 12:03:45;;;;;;;18.83;17.67;;;12.30;99.90;;;;;;5053810;28;20469;-72
2021/10/06 12:06:19;;;;;;;20.40;19.00;;;12.20;99.90;;;;;;5057614;28;20464;-70
2021/10/06 12:08:47;;;;;;;22.17;20.60;;;12.30;99.90;;;;;;5056805;28;20474;-70
2021/10/06 12:11:16;;;;;;;21.07;19.23;;;12.10;99.90;;;;;;5050058;28;20479;-70
2021/10/06 12:13:43;;;;;;;19.87;18.60;;;12.00;99.90;;;;;;5054010;28;20481;-70
2021/10/06 12:16:26;;;;;;;19.77;18.57;;;12.00;99.90;;;;;;5057129;28;20510;-72
2021/10/06 12:18:59;;;;;;;19.87;18.47;;;11.90;99.90;;;;;;5052486;28;20489;-71
2021/10/06 12:21:28;;;;;;;20.23;18.87;;;11.90;99.90;;;;;;5052757;28;20489;-70
2021/10/06 12:23:55;;;;;;;19.43;18.13;;;12.00;99.90;;;;;;5049964;28;20463;-69
2021/10/06 12:26:30;;;;;;;20.77;19.23;;;12.10;99.90;;;;;;5051586;28;21014;-69
2021/10/06 12:28:58;;;;;;;19.70;18.50;;;12.10;99.90;;;;;;5051783;28;20560;-70
2021/10/06 12:31:27;;;;;;;19.47;18.20;;;12.10;99.90;;;;;;5045804;28;20648;-70
2021/10/06 12:34:09;;;;;;;20.13;18.63;;;12.20;99.90;;;;;;5050116;28;20474;-69
2021/10/06 12:36:37;;;;;;;19.47;18.20;;;12.20;99.90;;;;;;5051119;28;20554;-69
2021/10/06 12:39:13;;;;;;;18.90;17.70;;;12.20;99.90;;;;;;5058149;28;20466;-69